Archival Weather

Kayes/Dag-Dag

Kayes/Dag-Dag, Mali (GAKD)

Report from: Thursday, September 21, 2023 8:00 AM UTC
Current time: Friday, February 23, 2024 9:06 PM UTC

Current weather – Weather history – Daily summaries
Weather forecast

Temperature24.0°C (75.2°F)
Dew point22.0°C (71.6°F)
Winds 6 kts (3.1 m/s, 6.9 mph) West-Southwest (240°)
Visibility6.2 mi. (10 km)
Clouds Scattered clouds 2,000 ft. (610 m)
Altimeter29.97 in.Hg (1015 mB)
Relative humidity89 %
Density altitude1,341 ft. (409 m)
Flight conditions Visual Meteorological Conditions
Raw dataGAKD 210800Z 24006KT 9999 SCT020 24/22 Q1015
An error has occurred. This application may no longer respond until reloaded. Reload 🗙